sensor_id;sensor_type;location;lat;lon;timestamp;temperature;humidity
12436;DHT22;6282;51.440;6.938;2022-11-15T00:01:58;10.80;99.90
12436;DHT22;6282;51.440;6.938;2022-11-15T00:04:25;10.90;99.90
12436;DHT22;6282;51.440;6.938;2022-11-15T00:06:52;11.00;99.90
12436;DHT22;6282;51.440;6.938;2022-11-15T00:09:19;10.90;99.90
12436;DHT22;6282;51.440;6.938;2022-11-15T00:11:47;10.80;99.90
12436;DHT22;6282;51.440;6.938;2022-11-15T00:14:14;10.70;99.90
12436;DHT22;6282;51.440;6.938;2022-11-15T00:16:41;10.70;99.90
12436;DHT22;6282;51.440;6.938;2022-11-15T00:19:08;10.70;99.90
12436;DHT22;6282;51.440;6.938;2022-11-15T00:21:34;10.80;99.90
12436;DHT22;6282;51.440;6.938;2022-11-15T00:24:01;10.70;99.90
12436;DHT22;6282;51.440;6.938;2022-11-15T00:26:28;10.70;99.90
12436;DHT22;6282;51.440;6.938;2022-11-15T00:28:56;10.80;99.90
12436;DHT22;6282;51.440;6.938;2022-11-15T00:31:23;10.90;99.90
12436;DHT22;6282;51.440;6.938;2022-11-15T00:33:50;10.90;99.90
12436;DHT22;6282;51.440;6.938;2022-11-15T00:36:16;11.00;99.90
12436;DHT22;6282;51.440;6.938;2022-11-15T00:38:43;11.00;99.90
12436;DHT22;6282;51.440;6.938;2022-11-15T00:41:10;11.00;99.90
12436;DHT22;6282;51.440;6.938;2022-11-15T00:43:37;11.10;99.90
12436;DHT22;6282;51.440;6.938;2022-11-15T00:46:06;11.10;99.90
12436;DHT22;6282;51.440;6.938;2022-11-15T00:48:34;11.20;99.90
12436;DHT22;6282;51.440;6.938;2022-11-15T00:51:01;11.30;99.90
12436;DHT22;6282;51.440;6.938;2022-11-15T00:53:28;11.30;99.90
12436;DHT22;6282;51.440;6.938;2022-11-15T00:55:55;11.20;99.90
12436;DHT22;6282;51.440;6.938;2022-11-15T00:58:21;11.40;99.90
12436;DHT22;6282;51.440;6.938;2022-11-15T01:00:48;11.40;99.90
12436;DHT22;6282;51.440;6.938;2022-11-15T01:03:16;11.30;99.90
12436;DHT22;6282;51.440;6.938;2022-11-15T01:05:43;11.40;99.90
12436;DHT22;6282;51.440;6.938;2022-11-15T01:08:12;11.40;99.90
12436;DHT22;6282;51.440;6.938;2022-11-15T01:10:40;11.50;99.90
12436;DHT22;6282;51.440;6.938;2022-11-15T01:13:07;11.50;99.90
12436;DHT22;6282;51.440;6.938;2022-11-15T01:15:34;11.50;99.90
12436;DHT22;6282;51.440;6.938;2022-11-15T01:18:00;11.50;99.90
12436;DHT22;6282;51.440;6.938;2022-11-15T01:20:28;11.60;99.90
12436;DHT22;6282;51.440;6.938;2022-11-15T01:22:55;11.60;99.90
12436;DHT22;6282;51.440;6.938;2022-11-15T01:25:22;11.60;99.90
12436;DHT22;6282;51.440;6.938;2022-11-15T01:27:49;11.70;99.90
12436;DHT22;6282;51.440;6.938;2022-11-15T01:30:16;11.70;99.90
12436;DHT22;6282;51.440;6.938;2022-11-15T01:32:42;11.70;99.90
12436;DHT22;6282;51.440;6.938;2022-11-15T01:35:09;11.70;99.90
12436;DHT22;6282;51.440;6.938;2022-11-15T01:37:37;11.70;99.90
12436;DHT22;6282;51.440;6.938;2022-11-15T01:40:05;11.80;99.90
12436;DHT22;6282;51.440;6.938;2022-11-15T01:42:32;11.70;99.90
12436;DHT22;6282;51.440;6.938;2022-11-15T01:44:59;11.60;99.90
12436;DHT22;6282;51.440;6.938;2022-11-15T01:47:28;11.60;99.90
12436;DHT22;6282;51.440;6.938;2022-11-15T01:49:59;11.60;99.90
12436;DHT22;6282;51.440;6.938;2022-11-15T01:52:29;11.70;99.90
12436;DHT22;6282;51.440;6.938;2022-11-15T01:55:02;11.70;99.90
12436;DHT22;6282;51.440;6.938;2022-11-15T01:57:30;11.70;99.90
12436;DHT22;6282;51.440;6.938;2022-11-15T01:59:57;11.60;99.90
12436;DHT22;6282;51.440;6.938;2022-11-15T02:02:26;11.70;99.90
12436;DHT22;6282;51.440;6.938;2022-11-15T02:04:53;11.80;99.90
12436;DHT22;6282;51.440;6.938;2022-11-15T02:07:21;11.80;99.90
12436;DHT22;6282;51.440;6.938;2022-11-15T02:09:49;11.80;99.90
12436;DHT22;6282;51.440;6.938;2022-11-15T02:12:20;11.80;99.90
12436;DHT22;6282;51.440;6.938;2022-11-15T02:14:49;12.00;99.90
12436;DHT22;6282;51.440;6.938;2022-11-15T02:17:36;11.90;99.90
12436;DHT22;6282;51.440;6.938;2022-11-15T02:20:39;11.90;99.90
12436;DHT22;6282;51.440;6.938;2022-11-15T02:23:42;11.90;99.90
12436;DHT22;6282;51.440;6.938;2022-11-15T02:26:30;12.00;99.90
12436;DHT22;6282;51.440;6.938;2022-11-15T02:29:06;11.90;99.90
12436;DHT22;6282;51.440;6.938;2022-11-15T02:31:40;12.00;99.90
12436;DHT22;6282;51.440;6.938;2022-11-15T02:34:20;12.00;99.90
12436;DHT22;6282;51.440;6.938;2022-11-15T02:36:54;11.90;99.90
12436;DHT22;6282;51.440;6.938;2022-11-15T02:39:31;11.80;99.90
12436;DHT22;6282;51.440;6.938;2022-11-15T02:42:02;12.00;99.90
12436;DHT22;6282;51.440;6.938;2022-11-15T02:44:51;12.00;99.90
12436;DHT22;6282;51.440;6.938;2022-11-15T02:47:21;11.80;99.90
12436;DHT22;6282;51.440;6.938;2022-11-15T02:49:50;12.00;99.90
12436;DHT22;6282;51.440;6.938;2022-11-15T02:52:20;11.90;99.90
12436;DHT22;6282;51.440;6.938;2022-11-15T02:54:53;11.90;99.90
12436;DHT22;6282;51.440;6.938;2022-11-15T02:57:33;12.00;99.90
12436;DHT22;6282;51.440;6.938;2022-11-15T03:00:07;12.00;99.90
12436;DHT22;6282;51.440;6.938;2022-11-15T03:02:42;12.00;99.90
12436;DHT22;6282;51.440;6.938;2022-11-15T03:05:19;12.20;99.90
12436;DHT22;6282;51.440;6.938;2022-11-15T03:07:52;12.00;99.90
12436;DHT22;6282;51.440;6.938;2022-11-15T03:10:24;12.10;99.90
12436;DHT22;6282;51.440;6.938;2022-11-15T03:12:56;12.10;99.90
12436;DHT22;6282;51.440;6.938;2022-11-15T03:15:27;12.10;99.90
12436;DHT22;6282;51.440;6.938;2022-11-15T03:17:59;12.20;99.90
12436;DHT22;6282;51.440;6.938;2022-11-15T03:20:28;12.20;99.90
12436;DHT22;6282;51.440;6.938;2022-11-15T03:22:59;12.20;99.90
12436;DHT22;6282;51.440;6.938;2022-11-15T03:25:28;12.30;99.90
12436;DHT22;6282;51.440;6.938;2022-11-15T03:27:57;12.20;99.90
12436;DHT22;6282;51.440;6.938;2022-11-15T03:30:25;12.20;99.90
12436;DHT22;6282;51.440;6.938;2022-11-15T03:32:54;12.20;99.90
12436;DHT22;6282;51.440;6.938;2022-11-15T03:35:26;12.20;99.90
12436;DHT22;6282;51.440;6.938;2022-11-15T03:37:57;12.30;99.90
12436;DHT22;6282;51.440;6.938;2022-11-15T03:40:30;12.30;99.90
12436;DHT22;6282;51.440;6.938;2022-11-15T03:43:04;12.40;99.90
12436;DHT22;6282;51.440;6.938;2022-11-15T03:45:36;12.40;99.90
12436;DHT22;6282;51.440;6.938;2022-11-15T03:48:10;12.40;99.90
12436;DHT22;6282;51.440;6.938;2022-11-15T03:50:40;12.40;99.90
12436;DHT22;6282;51.440;6.938;2022-11-15T03:53:07;12.30;99.90
12436;DHT22;6282;51.440;6.938;2022-11-15T03:55:34;12.20;99.90
12436;DHT22;6282;51.440;6.938;2022-11-15T03:58:01;12.30;99.90
12436;DHT22;6282;51.440;6.938;2022-11-15T04:00:28;12.40;99.90
12436;DHT22;6282;51.440;6.938;2022-11-15T04:02:55;12.50;99.90
12436;DHT22;6282;51.440;6.938;2022-11-15T04:05:22;12.50;99.90
12436;DHT22;6282;51.440;6.938;2022-11-15T04:07:50;12.50;99.90
12436;DHT22;6282;51.440;6.938;2022-11-15T04:10:17;12.40;99.90
12436;DHT22;6282;51.440;6.938;2022-11-15T04:12:45;12.40;99.90
12436;DHT22;6282;51.440;6.938;2022-11-15T04:15:14;12.40;99.90
12436;DHT22;6282;51.440;6.938;2022-11-15T04:17:43;12.40;99.90
12436;DHT22;6282;51.440;6.938;2022-11-15T04:20:12;12.40;99.90
12436;DHT22;6282;51.440;6.938;2022-11-15T04:22:59;12.30;99.90
12436;DHT22;6282;51.440;6.938;2022-11-15T04:25:44;12.30;99.90
12436;DHT22;6282;51.440;6.938;2022-11-15T04:28:11;12.40;99.90
12436;DHT22;6282;51.440;6.938;2022-11-15T04:30:38;12.40;99.90
12436;DHT22;6282;51.440;6.938;2022-11-15T04:33:05;12.40;99.90
12436;DHT22;6282;51.440;6.938;2022-11-15T04:35:32;12.40;99.90
12436;DHT22;6282;51.440;6.938;2022-11-15T04:38:01;12.50;99.90
12436;DHT22;6282;51.440;6.938;2022-11-15T04:40:28;12.40;99.90
12436;DHT22;6282;51.440;6.938;2022-11-15T04:42:55;12.40;99.90
12436;DHT22;6282;51.440;6.938;2022-11-15T04:45:22;12.40;99.90
12436;DHT22;6282;51.440;6.938;2022-11-15T04:47:49;12.40;99.90
12436;DHT22;6282;51.440;6.938;2022-11-15T04:50:16;12.30;99.90
12436;DHT22;6282;51.440;6.938;2022-11-15T04:52:50;12.20;99.90
12436;DHT22;6282;51.440;6.938;2022-11-15T04:55:18;12.30;99.90
12436;DHT22;6282;51.440;6.938;2022-11-15T04:57:45;12.30;99.90
12436;DHT22;6282;51.440;6.938;2022-11-15T05:00:14;12.20;99.90
12436;DHT22;6282;51.440;6.938;2022-11-15T05:02:42;12.20;99.90
12436;DHT22;6282;51.440;6.938;2022-11-15T05:05:26;12.20;99.90
12436;DHT22;6282;51.440;6.938;2022-11-15T05:07:53;12.20;99.90
12436;DHT22;6282;51.440;6.938;2022-11-15T05:10:21;12.20;99.90
12436;DHT22;6282;51.440;6.938;2022-11-15T05:12:48;12.20;99.90
12436;DHT22;6282;51.440;6.938;2022-11-15T05:15:15;12.20;99.90
12436;DHT22;6282;51.440;6.938;2022-11-15T05:17:42;12.10;99.90
12436;DHT22;6282;51.440;6.938;2022-11-15T05:20:10;12.00;99.90
12436;DHT22;6282;51.440;6.938;2022-11-15T05:22:37;11.90;99.90
12436;DHT22;6282;51.440;6.938;2022-11-15T05:25:04;11.80;99.90
12436;DHT22;6282;51.440;6.938;2022-11-15T05:27:33;11.80;99.90
12436;DHT22;6282;51.440;6.938;2022-11-15T05:30:00;11.80;99.90
12436;DHT22;6282;51.440;6.938;2022-11-15T05:32:27;11.80;99.90
12436;DHT22;6282;51.440;6.938;2022-11-15T05:34:54;11.80;99.90
12436;DHT22;6282;51.440;6.938;2022-11-15T05:37:21;11.90;99.90
12436;DHT22;6282;51.440;6.938;2022-11-15T05:39:48;11.70;99.90
12436;DHT22;6282;51.440;6.938;2022-11-15T05:42:15;11.70;99.90
12436;DHT22;6282;51.440;6.938;2022-11-15T05:44:46;11.70;99.90
12436;DHT22;6282;51.440;6.938;2022-11-15T05:47:16;11.70;99.90
12436;DHT22;6282;51.440;6.938;2022-11-15T05:49:44;11.60;99.90
12436;DHT22;6282;51.440;6.938;2022-11-15T05:52:13;11.70;99.90
12436;DHT22;6282;51.440;6.938;2022-11-15T05:54:42;11.70;99.90
12436;DHT22;6282;51.440;6.938;2022-11-15T05:57:09;11.70;99.90
12436;DHT22;6282;51.440;6.938;2022-11-15T05:59:36;11.70;99.90
12436;DHT22;6282;51.440;6.938;2022-11-15T06:02:04;11.70;99.90
12436;DHT22;6282;51.440;6.938;2022-11-15T06:04:31;11.70;99.90
12436;DHT22;6282;51.440;6.938;2022-11-15T06:06:59;11.70;99.90
12436;DHT22;6282;51.440;6.938;2022-11-15T06:09:25;11.70;99.90
12436;DHT22;6282;51.440;6.938;2022-11-15T06:11:52;11.70;99.90
12436;DHT22;6282;51.440;6.938;2022-11-15T06:14:19;11.70;99.90
12436;DHT22;6282;51.440;6.938;2022-11-15T06:16:46;11.70;99.90
12436;DHT22;6282;51.440;6.938;2022-11-15T06:19:14;11.70;99.90
12436;DHT22;6282;51.440;6.938;2022-11-15T06:21:41;11.70;99.90
12436;DHT22;6282;51.440;6.938;2022-11-15T06:24:08;11.70;99.90
12436;DHT22;6282;51.440;6.938;2022-11-15T06:26:34;11.80;99.90
12436;DHT22;6282;51.440;6.938;2022-11-15T06:29:02;11.80;99.90
12436;DHT22;6282;51.440;6.938;2022-11-15T06:31:30;11.80;99.90
12436;DHT22;6282;51.440;6.938;2022-11-15T06:33:56;11.90;99.90
12436;DHT22;6282;51.440;6.938;2022-11-15T06:36:24;11.80;99.90
12436;DHT22;6282;51.440;6.938;2022-11-15T06:38:51;11.90;99.90
12436;DHT22;6282;51.440;6.938;2022-11-15T06:41:18;11.90;99.90
12436;DHT22;6282;51.440;6.938;2022-11-15T06:43:46;11.90;99.90
12436;DHT22;6282;51.440;6.938;2022-11-15T06:46:13;11.90;99.90
12436;DHT22;6282;51.440;6.938;2022-11-15T06:48:39;12.00;99.90
12436;DHT22;6282;51.440;6.938;2022-11-15T06:51:06;12.00;99.90
12436;DHT22;6282;51.440;6.938;2022-11-15T06:53:35;12.00;99.90
12436;DHT22;6282;51.440;6.938;2022-11-15T06:56:03;12.00;99.90
12436;DHT22;6282;51.440;6.938;2022-11-15T06:58:30;11.90;99.90
12436;DHT22;6282;51.440;6.938;2022-11-15T07:01:01;11.90;99.90
12436;DHT22;6282;51.440;6.938;2022-11-15T07:03:28;11.90;99.90
12436;DHT22;6282;51.440;6.938;2022-11-15T07:05:55;11.90;99.90
12436;DHT22;6282;51.440;6.938;2022-11-15T07:08:23;11.90;99.90
12436;DHT22;6282;51.440;6.938;2022-11-15T07:10:52;11.90;99.90
12436;DHT22;6282;51.440;6.938;2022-11-15T07:13:19;12.00;99.90
12436;DHT22;6282;51.440;6.938;2022-11-15T07:15:45;12.10;99.90
12436;DHT22;6282;51.440;6.938;2022-11-15T07:18:12;12.20;99.90
12436;DHT22;6282;51.440;6.938;2022-11-15T07:20:39;12.10;99.90
12436;DHT22;6282;51.440;6.938;2022-11-15T07:23:06;12.20;99.90
12436;DHT22;6282;51.440;6.938;2022-11-15T07:25:33;12.10;99.90
12436;DHT22;6282;51.440;6.938;2022-11-15T07:28:02;12.20;99.90
12436;DHT22;6282;51.440;6.938;2022-11-15T07:30:29;12.20;99.90
12436;DHT22;6282;51.440;6.938;2022-11-15T07:32:56;12.20;99.90
12436;DHT22;6282;51.440;6.938;2022-11-15T07:35:23;12.20;99.90
12436;DHT22;6282;51.440;6.938;2022-11-15T07:37:54;12.20;99.90
12436;DHT22;6282;51.440;6.938;2022-11-15T07:40:21;12.20;99.90
12436;DHT22;6282;51.440;6.938;2022-11-15T07:42:48;12.20;99.90
12436;DHT22;6282;51.440;6.938;2022-11-15T07:45:24;12.20;99.90
12436;DHT22;6282;51.440;6.938;2022-11-15T07:47:52;12.30;99.90
12436;DHT22;6282;51.440;6.938;2022-11-15T07:50:20;12.20;99.90
12436;DHT22;6282;51.440;6.938;2022-11-15T07:52:47;12.20;99.90
12436;DHT22;6282;51.440;6.938;2022-11-15T07:55:13;12.20;99.90
12436;DHT22;6282;51.440;6.938;2022-11-15T07:57:40;12.20;99.90
12436;DHT22;6282;51.440;6.938;2022-11-15T08:00:08;12.30;99.90
12436;DHT22;6282;51.440;6.938;2022-11-15T08:02:36;12.30;99.90
12436;DHT22;6282;51.440;6.938;2022-11-15T08:05:04;12.30;99.90
12436;DHT22;6282;51.440;6.938;2022-11-15T08:07:31;12.30;99.90
12436;DHT22;6282;51.440;6.938;2022-11-15T08:09:58;12.30;99.90
12436;DHT22;6282;51.440;6.938;2022-11-15T08:12:26;12.30;99.90
12436;DHT22;6282;51.440;6.938;2022-11-15T08:14:54;12.30;99.90
12436;DHT22;6282;51.440;6.938;2022-11-15T08:17:20;12.30;99.90
12436;DHT22;6282;51.440;6.938;2022-11-15T08:19:49;12.30;99.90
12436;DHT22;6282;51.440;6.938;2022-11-15T08:22:16;12.30;99.90
12436;DHT22;6282;51.440;6.938;2022-11-15T08:24:43;12.20;99.90
12436;DHT22;6282;51.440;6.938;2022-11-15T08:27:11;12.30;99.90
12436;DHT22;6282;51.440;6.938;2022-11-15T08:29:42;12.30;99.90
12436;DHT22;6282;51.440;6.938;2022-11-15T08:32:09;12.30;99.90
12436;DHT22;6282;51.440;6.938;2022-11-15T08:34:36;12.30;99.90
12436;DHT22;6282;51.440;6.938;2022-11-15T08:37:05;12.30;99.90
12436;DHT22;6282;51.440;6.938;2022-11-15T08:39:32;12.30;99.90
12436;DHT22;6282;51.440;6.938;2022-11-15T08:41:59;12.30;99.90
12436;DHT22;6282;51.440;6.938;2022-11-15T08:44:25;12.20;99.90
12436;DHT22;6282;51.440;6.938;2022-11-15T08:46:52;12.10;99.90
12436;DHT22;6282;51.440;6.938;2022-11-15T08:49:19;12.20;99.90
12436;DHT22;6282;51.440;6.938;2022-11-15T08:51:46;12.20;99.90
12436;DHT22;6282;51.440;6.938;2022-11-15T08:54:14;12.10;99.90
12436;DHT22;6282;51.440;6.938;2022-11-15T08:56:41;12.20;99.90
12436;DHT22;6282;51.440;6.938;2022-11-15T08:59:08;12.20;99.90
12436;DHT22;6282;51.440;6.938;2022-11-15T09:01:34;12.20;99.90
12436;DHT22;6282;51.440;6.938;2022-11-15T09:04:01;12.30;99.90
12436;DHT22;6282;51.440;6.938;2022-11-15T09:06:29;12.40;99.90
12436;DHT22;6282;51.440;6.938;2022-11-15T09:08:56;12.40;99.90
12436;DHT22;6282;51.440;6.938;2022-11-15T09:11:24;12.50;99.90
12436;DHT22;6282;51.440;6.938;2022-11-15T09:13:52;12.50;99.90
12436;DHT22;6282;51.440;6.938;2022-11-15T09:16:18;12.60;99.90
12436;DHT22;6282;51.440;6.938;2022-11-15T09:18:45;12.50;99.90
12436;DHT22;6282;51.440;6.938;2022-11-15T09:21:13;12.60;99.90
12436;DHT22;6282;51.440;6.938;2022-11-15T09:23:40;12.60;99.90
12436;DHT22;6282;51.440;6.938;2022-11-15T09:26:06;12.60;99.90
12436;DHT22;6282;51.440;6.938;2022-11-15T09:28:36;12.60;99.90
12436;DHT22;6282;51.440;6.938;2022-11-15T09:31:05;12.60;99.90
12436;DHT22;6282;51.440;6.938;2022-11-15T09:33:32;12.60;99.90
12436;DHT22;6282;51.440;6.938;2022-11-15T09:36:03;12.60;99.90
12436;DHT22;6282;51.440;6.938;2022-11-15T09:38:31;12.70;99.90
12436;DHT22;6282;51.440;6.938;2022-11-15T09:41:13;12.90;99.90
12436;DHT22;6282;51.440;6.938;2022-11-15T09:46:20;12.80;1.00
12436;DHT22;6282;51.440;6.938;2022-11-15T09:51:25;14.00;99.90
12436;DHT22;6282;51.440;6.938;2022-11-15T09:53:58;13.00;1.00
12436;DHT22;6282;51.440;6.938;2022-11-15T09:56:30;12.70;99.90
12436;DHT22;6282;51.440;6.938;2022-11-15T09:59:05;12.80;99.90
12436;DHT22;6282;51.440;6.938;2022-11-15T10:06:40;12.80;1.00
12436;DHT22;6282;51.440;6.938;2022-11-15T10:09:14;12.80;99.90
12436;DHT22;6282;51.440;6.938;2022-11-15T10:11:42;12.80;99.90
12436;DHT22;6282;51.440;6.938;2022-11-15T10:14:15;12.90;99.90
12436;DHT22;6282;51.440;6.938;2022-11-15T10:19:50;12.70;1.00
12436;DHT22;6282;51.440;6.938;2022-11-15T10:22:25;12.80;99.90
12436;DHT22;6282;51.440;6.938;2022-11-15T10:25:00;13.20;1.00
12436;DHT22;6282;51.440;6.938;2022-11-15T10:27:33;12.80;1.00
12436;DHT22;6282;51.440;6.938;2022-11-15T10:30:04;12.60;1.00
12436;DHT22;6282;51.440;6.938;2022-11-15T10:35:19;13.40;1.00
12436;DHT22;6282;51.440;6.938;2022-11-15T10:37:47;13.30;1.00
12436;DHT22;6282;51.440;6.938;2022-11-15T10:43:18;13.00;1.00
12436;DHT22;6282;51.440;6.938;2022-11-15T10:45:47;13.20;99.90
12436;DHT22;6282;51.440;6.938;2022-11-15T10:48:21;13.10;27.20
12436;DHT22;6282;51.440;6.938;2022-11-15T10:50:50;13.20;99.90
12436;DHT22;6282;51.440;6.938;2022-11-15T10:53:25;13.40;1.00
12436;DHT22;6282;51.440;6.938;2022-11-15T10:55:55;13.20;99.90
12436;DHT22;6282;51.440;6.938;2022-11-15T10:58:34;12.80;1.00
12436;DHT22;6282;51.440;6.938;2022-11-15T11:01:15;13.00;1.00
12436;DHT22;6282;51.440;6.938;2022-11-15T11:03:43;12.80;99.90
12436;DHT22;6282;51.440;6.938;2022-11-15T11:06:12;13.10;99.90
12436;DHT22;6282;51.440;6.938;2022-11-15T11:08:40;13.00;1.00
12436;DHT22;6282;51.440;6.938;2022-11-15T11:11:07;13.60;99.90
12436;DHT22;6282;51.440;6.938;2022-11-15T11:13:36;13.50;38.10
12436;DHT22;6282;51.440;6.938;2022-11-15T11:19:13;13.40;14.60
12436;DHT22;6282;51.440;6.938;2022-11-15T11:21:51;13.50;1.00
12436;DHT22;6282;51.440;6.938;2022-11-15T11:24:28;13.40;99.90
12436;DHT22;6282;51.440;6.938;2022-11-15T11:27:13;13.60;1.00
12436;DHT22;6282;51.440;6.938;2022-11-15T11:29:52;13.60;1.00
12436;DHT22;6282;51.440;6.938;2022-11-15T11:32:40;13.30;99.90
12436;DHT22;6282;51.440;6.938;2022-11-15T11:35:13;13.50;99.90
12436;DHT22;6282;51.440;6.938;2022-11-15T11:37:46;14.00;99.90
12436;DHT22;6282;51.440;6.938;2022-11-15T11:40:26;13.10;99.90
12436;DHT22;6282;51.440;6.938;2022-11-15T11:42:58;13.60;99.90
12436;DHT22;6282;51.440;6.938;2022-11-15T11:45:44;13.80;99.90
12436;DHT22;6282;51.440;6.938;2022-11-15T11:48:23;13.20;1.00
12436;DHT22;6282;51.440;6.938;2022-11-15T11:50:53;13.20;1.00
12436;DHT22;6282;51.440;6.938;2022-11-15T11:53:28;13.20;48.40
12436;DHT22;6282;51.440;6.938;2022-11-15T11:55:58;13.90;78.60
12436;DHT22;6282;51.440;6.938;2022-11-15T11:58:33;13.30;99.90
12436;DHT22;6282;51.440;6.938;2022-11-15T12:01:17;13.10;99.90
12436;DHT22;6282;51.440;6.938;2022-11-15T12:03:49;13.00;7.60
12436;DHT22;6282;51.440;6.938;2022-11-15T12:06:23;13.80;83.00
12436;DHT22;6282;51.440;6.938;2022-11-15T12:08:58;13.40;1.00
12436;DHT22;6282;51.440;6.938;2022-11-15T12:11:32;13.40;39.80
12436;DHT22;6282;51.440;6.938;2022-11-15T12:14:05;13.30;1.00
12436;DHT22;6282;51.440;6.938;2022-11-15T12:16:35;13.50;1.00
12436;DHT22;6282;51.440;6.938;2022-11-15T12:19:04;13.60;1.00
12436;DHT22;6282;51.440;6.938;2022-11-15T12:21:39;13.80;1.00
12436;DHT22;6282;51.440;6.938;2022-11-15T12:24:13;13.20;1.00
12436;DHT22;6282;51.440;6.938;2022-11-15T12:26:48;14.00;1.00
12436;DHT22;6282;51.440;6.938;2022-11-15T12:29:20;14.10;1.00
12436;DHT22;6282;51.440;6.938;2022-11-15T12:31:51;13.70;1.00
12436;DHT22;6282;51.440;6.938;2022-11-15T12:34:36;13.60;1.00
12436;DHT22;6282;51.440;6.938;2022-11-15T12:37:44;13.60;1.00
12436;DHT22;6282;51.440;6.938;2022-11-15T12:40:31;14.00;1.00
12436;DHT22;6282;51.440;6.938;2022-11-15T12:43:04;13.80;1.00
12436;DHT22;6282;51.440;6.938;2022-11-15T12:45:33;13.40;99.90
12436;DHT22;6282;51.440;6.938;2022-11-15T12:51:04;13.50;99.90
12436;DHT22;6282;51.440;6.938;2022-11-15T12:53:34;13.90;99.90
12436;DHT22;6282;51.440;6.938;2022-11-15T12:56:22;13.50;1.00
12436;DHT22;6282;51.440;6.938;2022-11-15T12:58:52;13.60;1.00
12436;DHT22;6282;51.440;6.938;2022-11-15T13:01:52;13.90;1.00
12436;DHT22;6282;51.440;6.938;2022-11-15T13:04:24;13.70;1.00
12436;DHT22;6282;51.440;6.938;2022-11-15T13:06:53;13.80;1.00
12436;DHT22;6282;51.440;6.938;2022-11-15T13:09:54;13.80;1.00
12436;DHT22;6282;51.440;6.938;2022-11-15T13:12:50;13.90;1.00
12436;DHT22;6282;51.440;6.938;2022-11-15T13:18:35;14.10;1.00
12436;DHT22;6282;51.440;6.938;2022-11-15T13:21:05;13.70;1.00
12436;DHT22;6282;51.440;6.938;2022-11-15T13:23:54;13.80;1.00
12436;DHT22;6282;51.440;6.938;2022-11-15T13:26:23;13.40;99.90
12436;DHT22;6282;51.440;6.938;2022-11-15T13:28:51;13.60;99.90
12436;DHT22;6282;51.440;6.938;2022-11-15T13:31:29;13.70;99.90
12436;DHT22;6282;51.440;6.938;2022-11-15T13:33:59;13.20;1.00
12436;DHT22;6282;51.440;6.938;2022-11-15T13:36:28;13.70;1.00
12436;DHT22;6282;51.440;6.938;2022-11-15T13:38:59;14.20;1.00
12436;DHT22;6282;51.440;6.938;2022-11-15T13:41:29;13.70;1.00
12436;DHT22;6282;51.440;6.938;2022-11-15T13:43:57;13.60;1.00
12436;DHT22;6282;51.440;6.938;2022-11-15T13:46:26;13.90;1.00
12436;DHT22;6282;51.440;6.938;2022-11-15T13:48:56;13.60;99.90
12436;DHT22;6282;51.440;6.938;2022-11-15T13:51:30;13.90;1.00
12436;DHT22;6282;51.440;6.938;2022-11-15T13:54:01;13.20;99.90
12436;DHT22;6282;51.440;6.938;2022-11-15T13:56:31;13.20;99.90
12436;DHT22;6282;51.440;6.938;2022-11-15T13:58:59;13.50;99.90
12436;DHT22;6282;51.440;6.938;2022-11-15T14:01:28;13.60;1.00
12436;DHT22;6282;51.440;6.938;2022-11-15T14:03:59;13.60;99.90
12436;DHT22;6282;51.440;6.938;2022-11-15T14:06:28;13.40;1.00
12436;DHT22;6282;51.440;6.938;2022-11-15T14:11:52;14.10;99.90
12436;DHT22;6282;51.440;6.938;2022-11-15T14:14:20;13.80;99.90
12436;DHT22;6282;51.440;6.938;2022-11-15T14:16:49;14.20;99.90
12436;DHT22;6282;51.440;6.938;2022-11-15T14:19:37;13.40;99.90
12436;DHT22;6282;51.440;6.938;2022-11-15T14:22:19;13.50;99.90
12436;DHT22;6282;51.440;6.938;2022-11-15T14:27:31;14.10;1.00
12436;DHT22;6282;51.440;6.938;2022-11-15T14:29:59;13.90;1.00
12436;DHT22;6282;51.440;6.938;2022-11-15T14:32:27;13.60;1.00
12436;DHT22;6282;51.440;6.938;2022-11-15T14:34:55;13.30;1.00
12436;DHT22;6282;51.440;6.938;2022-11-15T14:37:24;13.40;1.00
12436;DHT22;6282;51.440;6.938;2022-11-15T14:39:52;14.20;1.00
12436;DHT22;6282;51.440;6.938;2022-11-15T14:42:20;13.90;1.00
12436;DHT22;6282;51.440;6.938;2022-11-15T14:44:48;13.50;1.00
12436;DHT22;6282;51.440;6.938;2022-11-15T14:47:15;13.20;1.00
12436;DHT22;6282;51.440;6.938;2022-11-15T14:49:43;13.50;1.00
12436;DHT22;6282;51.440;6.938;2022-11-15T14:52:24;13.30;1.00
12436;DHT22;6282;51.440;6.938;2022-11-15T14:54:51;13.80;1.00
12436;DHT22;6282;51.440;6.938;2022-11-15T14:57:18;13.70;1.00
12436;DHT22;6282;51.440;6.938;2022-11-15T14:59:45;13.70;1.00
12436;DHT22;6282;51.440;6.938;2022-11-15T15:02:18;13.70;1.00
12436;DHT22;6282;51.440;6.938;2022-11-15T15:04:45;13.60;1.00
12436;DHT22;6282;51.440;6.938;2022-11-15T15:07:12;13.70;1.00
12436;DHT22;6282;51.440;6.938;2022-11-15T15:09:39;13.10;1.00
12436;DHT22;6282;51.440;6.938;2022-11-15T15:12:16;13.30;19.00
12436;DHT22;6282;51.440;6.938;2022-11-15T15:14:44;13.30;99.90
12436;DHT22;6282;51.440;6.938;2022-11-15T15:17:11;13.10;1.00
12436;DHT22;6282;51.440;6.938;2022-11-15T15:19:39;13.70;99.90
12436;DHT22;6282;51.440;6.938;2022-11-15T15:22:08;13.00;90.40
12436;DHT22;6282;51.440;6.938;2022-11-15T15:24:35;13.90;1.00
12436;DHT22;6282;51.440;6.938;2022-11-15T15:27:02;13.40;42.30
12436;DHT22;6282;51.440;6.938;2022-11-15T15:29:29;12.90;99.90
12436;DHT22;6282;51.440;6.938;2022-11-15T15:34:23;13.00;1.00
12436;DHT22;6282;51.440;6.938;2022-11-15T15:37:06;13.10;99.90
12436;DHT22;6282;51.440;6.938;2022-11-15T15:39:33;13.10;99.90
12436;DHT22;6282;51.440;6.938;2022-11-15T15:44:29;13.10;1.00
12436;DHT22;6282;51.440;6.938;2022-11-15T15:46:56;13.30;1.00
12436;DHT22;6282;51.440;6.938;2022-11-15T15:49:23;13.40;1.00
12436;DHT22;6282;51.440;6.938;2022-11-15T15:51:51;13.30;99.90
12436;DHT22;6282;51.440;6.938;2022-11-15T15:54:18;13.40;99.90
12436;DHT22;6282;51.440;6.938;2022-11-15T16:01:39;13.20;99.90
12436;DHT22;6282;51.440;6.938;2022-11-15T16:04:06;13.10;99.90
12436;DHT22;6282;51.440;6.938;2022-11-15T16:06:35;13.40;99.90
12436;DHT22;6282;51.440;6.938;2022-11-15T16:09:05;13.30;99.90
12436;DHT22;6282;51.440;6.938;2022-11-15T16:11:32;13.20;1.00
12436;DHT22;6282;51.440;6.938;2022-11-15T16:13:59;13.40;1.00
12436;DHT22;6282;51.440;6.938;2022-11-15T16:16:26;13.10;1.00
12436;DHT22;6282;51.440;6.938;2022-11-15T16:18:53;13.20;1.00
12436;DHT22;6282;51.440;6.938;2022-11-15T16:21:20;13.20;84.50
12436;DHT22;6282;51.440;6.938;2022-11-15T16:23:46;13.70;1.00
12436;DHT22;6282;51.440;6.938;2022-11-15T16:26:20;13.20;99.90
12436;DHT22;6282;51.440;6.938;2022-11-15T16:33:44;13.20;99.90
12436;DHT22;6282;51.440;6.938;2022-11-15T16:36:19;13.30;99.90
12436;DHT22;6282;51.440;6.938;2022-11-15T16:41:13;13.30;99.90
12436;DHT22;6282;51.440;6.938;2022-11-15T16:46:17;13.30;99.90
12436;DHT22;6282;51.440;6.938;2022-11-15T16:48:45;13.10;99.90
12436;DHT22;6282;51.440;6.938;2022-11-15T16:56:23;13.40;99.90
12436;DHT22;6282;51.440;6.938;2022-11-15T16:58:52;13.20;99.90
12436;DHT22;6282;51.440;6.938;2022-11-15T17:01:22;13.50;99.90
12436;DHT22;6282;51.440;6.938;2022-11-15T17:08:44;13.90;1.00
12436;DHT22;6282;51.440;6.938;2022-11-15T17:11:13;13.50;6.20
12436;DHT22;6282;51.440;6.938;2022-11-15T17:13:40;13.50;99.90